158 км

Карта отелей и гостиниц, располагающихся рядом с аэропортом 158 км :

158 км Красноярский край 69° 30' 26.3988" N, 85° 59' 35.7612" E
158 км Красноярский край 69° 30' 26.3988" N, 85° 59' 35.7612" E
Код аэродрома ИКАО
ZDG3
Код аэродрома RU
ЗДГ3
Координаты
N69.50733° E085.99327°
Превышение над уровнем моря
26
Основная полоса
06/24
Курс магнитный
059,6/239,6
Длина основной ВПП
30
Ширина основной ВПП
30
Покрытие основной ВПП
Нетвёрдое (грунт)
Освещение ВПП
Нет
Тип: 
Вертодром
Класс аэродрома: 
Принадлежность: 
ГА
Статус: 
Действующий
Сайт: 
E-mail аэродрома: 
Страна: 
Россия
Регион: 
Красноярский край
Город: 
Дополнительная информация: 

Найти трансфер

С помощью этой формы Вы можете найти трансфер из аэропорта 158 км в город, аэропорт или вокзал:

Карта места

Javascript is required to view this map.

Погода в аэропортах:

Авиационная погода в Угольном

Регион: 
Погода METAR: 
UHMA 131200Z 36008MPS 4400 -SN DRSN SCT038 BKN047 M13/M14 Q1009 REBLSN RESN R01/////// NOSIG RMK TDZ R01/36008G09MPS END R01/36005G07MPS QFE753/1004
Время наблюдения
2021-04-13T12:00:00Z
Температура C
-13.0
Точка росы
-14.0
Направление ветра
360
Скорость ветра (узлы)
16
Метео видимость
2.73
Явления погоды
-SN DRSN SN
Условия полета
IFR
Аэропорт подробнее: 

Авиационная погода в Хомутово

Регион: 
Погода METAR: 
UHSS 131200Z 22003MPS 3600 -SHRA BR SCT006 BKN021CB 05/04 Q0995 R19/250255 NOSIG RMK MT OBSC QFE745/0993
Время наблюдения
2021-04-13T12:00:00Z
Температура C
5.0
Точка росы
4.0
Направление ветра
220
Скорость ветра (узлы)
6
Метео видимость
2.24
Явления погоды
-SHRA BR
Условия полета
IFR
Аэропорт подробнее: 

Авиационная погода в Елизово

Регион: 
Погода METAR: 
UHPP 131200Z 21001MPS 5000 BR BKN022 M00/M00 Q1015 R16R/290155 NOSIG RMK QFE758/1011
Время наблюдения
2021-04-13T12:00:00Z
Температура C
0.0
Точка росы
0.0
Направление ветра
210
Скорость ветра (узлы)
2
Метео видимость
3.11
Явления погоды
BR
Условия полета
MVFR
Аэропорт подробнее: 

Авиационная погода в аэропорту Алыкель

Регион: 
Погода METAR: 
UOOO 131200Z 27009MPS 8000 -SN BLSN BKN008 M04/M05 Q0997 R19/650542 NOSIG RMK QFE732/0976
Время наблюдения
2021-04-13T12:00:00Z
Температура C
-4.0
Точка росы
-5.0
Направление ветра
270
Скорость ветра (узлы)
17
Метео видимость
4.97
Явления погоды
-SN BLSN
Условия полета
IFR
Аэропорт подробнее: